sensor_id;sensor_type;location;lat;lon;timestamp;P1;durP1;ratioP1;P2;durP2;ratioP2
73699;SDS011;62005;50.082;8.988;2023-07-13T00:00:52;1.17;;;0.10;;
73699;SDS011;62005;50.082;8.988;2023-07-13T00:03:17;1.00;;;0.30;;
73699;SDS011;62005;50.082;8.988;2023-07-13T00:05:43;2.07;;;0.10;;
73699;SDS011;62005;50.082;8.988;2023-07-13T00:08:08;4.00;;;0.20;;
73699;SDS011;62005;50.082;8.988;2023-07-13T00:10:40;3.95;;;0.20;;
73699;SDS011;62005;50.082;8.988;2023-07-13T00:13:06;1.40;;;0.30;;
73699;SDS011;62005;50.082;8.988;2023-07-13T00:15:32;2.47;;;0.22;;
73699;SDS011;62005;50.082;8.988;2023-07-13T00:17:57;1.83;;;0.23;;
73699;SDS011;62005;50.082;8.988;2023-07-13T00:20:23;2.30;;;0.20;;
73699;SDS011;62005;50.082;8.988;2023-07-13T00:22:50;1.27;;;0.20;;
73699;SDS011;62005;50.082;8.988;2023-07-13T00:25:17;1.83;;;0.20;;
73699;SDS011;62005;50.082;8.988;2023-07-13T00:27:43;2.92;;;0.28;;
73699;SDS011;62005;50.082;8.988;2023-07-13T00:30:09;1.88;;;0.20;;
73699;SDS011;62005;50.082;8.988;2023-07-13T00:32:35;1.63;;;0.73;;
73699;SDS011;62005;50.082;8.988;2023-07-13T00:35:01;2.10;;;0.28;;
73699;SDS011;62005;50.082;8.988;2023-07-13T00:37:28;1.25;;;0.30;;
73699;SDS011;62005;50.082;8.988;2023-07-13T00:39:54;1.10;;;0.30;;
73699;SDS011;62005;50.082;8.988;2023-07-13T00:42:19;1.67;;;0.63;;
73699;SDS011;62005;50.082;8.988;2023-07-13T00:47:41;1.55;;;0.20;;
73699;SDS011;62005;50.082;8.988;2023-07-13T00:50:10;1.45;;;0.47;;
73699;SDS011;62005;50.082;8.988;2023-07-13T00:52:39;1.35;;;0.30;;
73699;SDS011;62005;50.082;8.988;2023-07-13T00:55:08;2.40;;;0.35;;
73699;SDS011;62005;50.082;8.988;2023-07-13T00:57:36;1.25;;;0.15;;
73699;SDS011;62005;50.082;8.988;2023-07-13T01:00:03;2.10;;;0.13;;
73699;SDS011;62005;50.082;8.988;2023-07-13T01:02:31;1.63;;;0.20;;
73699;SDS011;62005;50.082;8.988;2023-07-13T01:04:58;1.58;;;0.30;;
73699;SDS011;62005;50.082;8.988;2023-07-13T01:07:23;2.58;;;0.70;;
73699;SDS011;62005;50.082;8.988;2023-07-13T01:09:49;1.73;;;0.30;;
73699;SDS011;62005;50.082;8.988;2023-07-13T01:12:14;2.40;;;0.35;;
73699;SDS011;62005;50.082;8.988;2023-07-13T01:14:40;1.92;;;0.20;;
73699;SDS011;62005;50.082;8.988;2023-07-13T01:17:07;1.17;;;0.30;;
73699;SDS011;62005;50.082;8.988;2023-07-13T01:19:39;1.48;;;0.32;;
73699;SDS011;62005;50.082;8.988;2023-07-13T01:22:11;1.23;;;0.30;;
73699;SDS011;62005;50.082;8.988;2023-07-13T01:24:39;2.05;;;0.20;;
73699;SDS011;62005;50.082;8.988;2023-07-13T01:27:08;1.52;;;0.30;;
73699;SDS011;62005;50.082;8.988;2023-07-13T01:29:35;2.22;;;0.20;;
73699;SDS011;62005;50.082;8.988;2023-07-13T01:32:07;1.17;;;0.22;;
73699;SDS011;62005;50.082;8.988;2023-07-13T01:34:34;2.70;;;0.30;;
73699;SDS011;62005;50.082;8.988;2023-07-13T01:37:00;4.13;;;0.40;;
73699;SDS011;62005;50.082;8.988;2023-07-13T01:39:25;1.90;;;0.20;;
73699;SDS011;62005;50.082;8.988;2023-07-13T01:41:51;1.02;;;0.20;;
73699;SDS011;62005;50.082;8.988;2023-07-13T01:44:16;1.97;;;0.60;;
73699;SDS011;62005;50.082;8.988;2023-07-13T01:46:41;2.10;;;0.30;;
73699;SDS011;62005;50.082;8.988;2023-07-13T01:49:06;2.37;;;0.60;;
73699;SDS011;62005;50.082;8.988;2023-07-13T01:51:32;1.03;;;0.20;;
73699;SDS011;62005;50.082;8.988;2023-07-13T01:53:57;1.27;;;0.40;;
73699;SDS011;62005;50.082;8.988;2023-07-13T01:56:22;1.43;;;0.23;;
73699;SDS011;62005;50.082;8.988;2023-07-13T01:58:48;1.35;;;0.20;;
73699;SDS011;62005;50.082;8.988;2023-07-13T02:01:13;3.10;;;0.30;;
73699;SDS011;62005;50.082;8.988;2023-07-13T02:03:39;4.30;;;0.40;;
73699;SDS011;62005;50.082;8.988;2023-07-13T02:06:04;2.93;;;0.20;;
73699;SDS011;62005;50.082;8.988;2023-07-13T02:08:30;1.65;;;0.20;;
73699;SDS011;62005;50.082;8.988;2023-07-13T02:10:57;2.22;;;0.43;;
73699;SDS011;62005;50.082;8.988;2023-07-13T02:13:22;3.70;;;0.30;;
73699;SDS011;62005;50.082;8.988;2023-07-13T02:15:49;2.60;;;0.80;;
73699;SDS011;62005;50.082;8.988;2023-07-13T02:18:15;0.98;;;0.30;;
73699;SDS011;62005;50.082;8.988;2023-07-13T02:20:42;1.15;;;0.30;;
73699;SDS011;62005;50.082;8.988;2023-07-13T02:23:08;3.67;;;0.80;;
73699;SDS011;62005;50.082;8.988;2023-07-13T02:25:33;1.90;;;0.40;;
73699;SDS011;62005;50.082;8.988;2023-07-13T02:27:58;3.63;;;0.57;;
73699;SDS011;62005;50.082;8.988;2023-07-13T02:30:24;1.97;;;0.20;;
73699;SDS011;62005;50.082;8.988;2023-07-13T02:32:49;3.40;;;0.20;;
73699;SDS011;62005;50.082;8.988;2023-07-13T02:35:15;1.95;;;0.20;;
73699;SDS011;62005;50.082;8.988;2023-07-13T02:37:40;1.85;;;0.20;;
73699;SDS011;62005;50.082;8.988;2023-07-13T02:40:06;2.57;;;0.40;;
73699;SDS011;62005;50.082;8.988;2023-07-13T02:42:33;1.25;;;0.40;;
73699;SDS011;62005;50.082;8.988;2023-07-13T02:44:59;1.83;;;0.25;;
73699;SDS011;62005;50.082;8.988;2023-07-13T02:47:24;3.70;;;0.63;;
73699;SDS011;62005;50.082;8.988;2023-07-13T02:49:50;2.83;;;0.30;;
73699;SDS011;62005;50.082;8.988;2023-07-13T02:52:15;1.87;;;0.30;;
73699;SDS011;62005;50.082;8.988;2023-07-13T02:54:41;3.47;;;0.30;;
73699;SDS011;62005;50.082;8.988;2023-07-13T02:57:06;2.63;;;0.77;;
73699;SDS011;62005;50.082;8.988;2023-07-13T02:59:31;2.47;;;0.77;;
73699;SDS011;62005;50.082;8.988;2023-07-13T03:01:57;2.30;;;0.60;;
73699;SDS011;62005;50.082;8.988;2023-07-13T03:04:22;2.67;;;0.40;;
73699;SDS011;62005;50.082;8.988;2023-07-13T03:06:47;1.83;;;0.53;;
73699;SDS011;62005;50.082;8.988;2023-07-13T03:09:13;2.90;;;0.53;;
73699;SDS011;62005;50.082;8.988;2023-07-13T03:11:38;1.60;;;0.75;;
73699;SDS011;62005;50.082;8.988;2023-07-13T03:14:04;2.45;;;0.43;;
73699;SDS011;62005;50.082;8.988;2023-07-13T03:16:29;2.72;;;0.30;;
73699;SDS011;62005;50.082;8.988;2023-07-13T03:18:55;2.80;;;0.67;;
73699;SDS011;62005;50.082;8.988;2023-07-13T03:21:20;3.40;;;0.40;;
73699;SDS011;62005;50.082;8.988;2023-07-13T03:23:46;1.92;;;0.40;;
73699;SDS011;62005;50.082;8.988;2023-07-13T03:26:13;0.90;;;0.30;;
73699;SDS011;62005;50.082;8.988;2023-07-13T03:28:41;1.80;;;0.40;;
73699;SDS011;62005;50.082;8.988;2023-07-13T03:31:08;1.63;;;0.30;;
73699;SDS011;62005;50.082;8.988;2023-07-13T03:33:36;3.33;;;0.28;;
73699;SDS011;62005;50.082;8.988;2023-07-13T03:36:02;2.22;;;0.52;;
73699;SDS011;62005;50.082;8.988;2023-07-13T03:38:30;3.85;;;0.60;;
73699;SDS011;62005;50.082;8.988;2023-07-13T03:40:55;1.73;;;0.30;;
73699;SDS011;62005;50.082;8.988;2023-07-13T03:43:20;5.87;;;0.60;;
73699;SDS011;62005;50.082;8.988;2023-07-13T03:45:46;1.57;;;0.30;;
73699;SDS011;62005;50.082;8.988;2023-07-13T03:48:12;5.47;;;0.60;;
73699;SDS011;62005;50.082;8.988;2023-07-13T03:50:37;2.13;;;0.57;;
73699;SDS011;62005;50.082;8.988;2023-07-13T03:53:03;1.15;;;0.40;;
73699;SDS011;62005;50.082;8.988;2023-07-13T03:55:29;2.85;;;0.20;;
73699;SDS011;62005;50.082;8.988;2023-07-13T03:57:59;2.35;;;0.55;;
73699;SDS011;62005;50.082;8.988;2023-07-13T04:00:26;4.18;;;0.50;;
73699;SDS011;62005;50.082;8.988;2023-07-13T04:02:51;2.22;;;0.60;;
73699;SDS011;62005;50.082;8.988;2023-07-13T04:05:17;3.60;;;0.40;;
73699;SDS011;62005;50.082;8.988;2023-07-13T04:07:42;2.83;;;0.95;;
73699;SDS011;62005;50.082;8.988;2023-07-13T04:10:08;1.47;;;0.43;;
73699;SDS011;62005;50.082;8.988;2023-07-13T04:12:33;2.55;;;0.90;;
73699;SDS011;62005;50.082;8.988;2023-07-13T04:14:59;2.00;;;0.70;;
73699;SDS011;62005;50.082;8.988;2023-07-13T04:17:24;3.13;;;0.67;;
73699;SDS011;62005;50.082;8.988;2023-07-13T04:19:49;1.20;;;0.40;;
73699;SDS011;62005;50.082;8.988;2023-07-13T04:22:15;3.90;;;0.70;;
73699;SDS011;62005;50.082;8.988;2023-07-13T04:24:40;3.17;;;0.40;;
73699;SDS011;62005;50.082;8.988;2023-07-13T04:27:06;1.40;;;0.40;;
73699;SDS011;62005;50.082;8.988;2023-07-13T04:29:34;2.30;;;0.50;;
73699;SDS011;62005;50.082;8.988;2023-07-13T04:31:59;3.10;;;0.57;;
73699;SDS011;62005;50.082;8.988;2023-07-13T04:34:24;1.63;;;0.70;;
73699;SDS011;62005;50.082;8.988;2023-07-13T04:36:50;2.50;;;0.70;;
73699;SDS011;62005;50.082;8.988;2023-07-13T04:39:15;1.65;;;0.68;;
73699;SDS011;62005;50.082;8.988;2023-07-13T04:41:41;2.90;;;0.70;;
73699;SDS011;62005;50.082;8.988;2023-07-13T04:44:06;1.60;;;0.57;;
73699;SDS011;62005;50.082;8.988;2023-07-13T04:46:31;2.00;;;0.40;;
73699;SDS011;62005;50.082;8.988;2023-07-13T04:48:57;1.97;;;0.40;;
73699;SDS011;62005;50.082;8.988;2023-07-13T04:51:23;2.15;;;0.70;;
73699;SDS011;62005;50.082;8.988;2023-07-13T04:53:49;4.22;;;0.65;;
73699;SDS011;62005;50.082;8.988;2023-07-13T04:56:14;2.77;;;0.50;;
73699;SDS011;62005;50.082;8.988;2023-07-13T04:58:39;1.83;;;0.57;;
73699;SDS011;62005;50.082;8.988;2023-07-13T05:01:05;3.33;;;0.57;;
73699;SDS011;62005;50.082;8.988;2023-07-13T05:03:31;2.63;;;0.40;;
73699;SDS011;62005;50.082;8.988;2023-07-13T05:06:01;3.13;;;1.05;;
73699;SDS011;62005;50.082;8.988;2023-07-13T05:08:29;3.45;;;0.68;;
73699;SDS011;62005;50.082;8.988;2023-07-13T05:10:54;5.85;;;0.60;;
73699;SDS011;62005;50.082;8.988;2023-07-13T05:13:19;3.67;;;0.50;;
73699;SDS011;62005;50.082;8.988;2023-07-13T05:15:45;2.75;;;0.30;;
73699;SDS011;62005;50.082;8.988;2023-07-13T05:18:12;1.85;;;0.30;;
73699;SDS011;62005;50.082;8.988;2023-07-13T05:20:37;4.30;;;0.50;;
73699;SDS011;62005;50.082;8.988;2023-07-13T05:23:02;2.40;;;0.13;;
73699;SDS011;62005;50.082;8.988;2023-07-13T05:25:28;1.92;;;0.30;;
73699;SDS011;62005;50.082;8.988;2023-07-13T05:27:53;3.07;;;0.40;;
73699;SDS011;62005;50.082;8.988;2023-07-13T05:30:18;2.07;;;0.30;;
73699;SDS011;62005;50.082;8.988;2023-07-13T05:32:44;2.50;;;0.23;;
73699;SDS011;62005;50.082;8.988;2023-07-13T05:35:09;2.45;;;0.20;;
73699;SDS011;62005;50.082;8.988;2023-07-13T05:37:34;6.47;;;1.17;;
73699;SDS011;62005;50.082;8.988;2023-07-13T05:40:00;6.10;;;1.30;;
73699;SDS011;62005;50.082;8.988;2023-07-13T05:42:25;6.83;;;1.53;;
73699;SDS011;62005;50.082;8.988;2023-07-13T05:44:50;3.50;;;1.52;;
73699;SDS011;62005;50.082;8.988;2023-07-13T05:47:16;2.90;;;0.47;;
73699;SDS011;62005;50.082;8.988;2023-07-13T05:49:41;2.50;;;0.40;;
73699;SDS011;62005;50.082;8.988;2023-07-13T05:52:07;1.87;;;0.20;;
73699;SDS011;62005;50.082;8.988;2023-07-13T05:54:33;5.47;;;0.20;;
73699;SDS011;62005;50.082;8.988;2023-07-13T05:56:58;2.27;;;0.20;;
73699;SDS011;62005;50.082;8.988;2023-07-13T05:59:23;5.43;;;0.67;;
73699;SDS011;62005;50.082;8.988;2023-07-13T06:01:49;2.88;;;0.55;;
73699;SDS011;62005;50.082;8.988;2023-07-13T06:04:17;3.53;;;0.30;;
73699;SDS011;62005;50.082;8.988;2023-07-13T06:06:42;2.40;;;0.20;;
73699;SDS011;62005;50.082;8.988;2023-07-13T06:09:08;2.13;;;0.10;;
73699;SDS011;62005;50.082;8.988;2023-07-13T06:11:33;1.67;;;0.00;;
73699;SDS011;62005;50.082;8.988;2023-07-13T06:14:00;2.35;;;0.10;;
73699;SDS011;62005;50.082;8.988;2023-07-13T06:16:25;1.83;;;0.10;;
73699;SDS011;62005;50.082;8.988;2023-07-13T06:18:50;2.97;;;0.17;;
73699;SDS011;62005;50.082;8.988;2023-07-13T06:21:17;2.63;;;0.10;;
73699;SDS011;62005;50.082;8.988;2023-07-13T06:23:44;1.65;;;0.10;;
73699;SDS011;62005;50.082;8.988;2023-07-13T06:26:13;1.10;;;0.00;;
73699;SDS011;62005;50.082;8.988;2023-07-13T06:32:01;0.95;;;0.00;;
73699;SDS011;62005;50.082;8.988;2023-07-13T06:34:26;2.75;;;0.10;;
73699;SDS011;62005;50.082;8.988;2023-07-13T06:36:51;3.20;;;0.20;;
73699;SDS011;62005;50.082;8.988;2023-07-13T06:39:17;1.35;;;0.00;;
73699;SDS011;62005;50.082;8.988;2023-07-13T06:41:42;3.22;;;0.00;;
73699;SDS011;62005;50.082;8.988;2023-07-13T06:44:08;2.37;;;0.10;;
73699;SDS011;62005;50.082;8.988;2023-07-13T06:46:33;0.95;;;0.08;;
73699;SDS011;62005;50.082;8.988;2023-07-13T06:48:58;1.53;;;0.00;;
73699;SDS011;62005;50.082;8.988;2023-07-13T06:51:24;1.87;;;0.00;;
73699;SDS011;62005;50.082;8.988;2023-07-13T06:53:50;3.58;;;0.10;;
73699;SDS011;62005;50.082;8.988;2023-07-13T06:56:16;2.90;;;0.20;;
73699;SDS011;62005;50.082;8.988;2023-07-13T06:58:41;3.07;;;0.00;;
73699;SDS011;62005;50.082;8.988;2023-07-13T07:01:07;3.80;;;0.10;;
73699;SDS011;62005;50.082;8.988;2023-07-13T07:03:32;2.20;;;0.00;;
73699;SDS011;62005;50.082;8.988;2023-07-13T07:06:02;1.45;;;0.10;;
73699;SDS011;62005;50.082;8.988;2023-07-13T07:11:01;2.77;;;0.10;;
73699;SDS011;62005;50.082;8.988;2023-07-13T07:13:27;2.10;;;0.10;;
73699;SDS011;62005;50.082;8.988;2023-07-13T07:15:53;1.80;;;0.00;;
73699;SDS011;62005;50.082;8.988;2023-07-13T07:18:18;2.33;;;0.00;;
73699;SDS011;62005;50.082;8.988;2023-07-13T07:20:44;2.00;;;0.00;;
73699;SDS011;62005;50.082;8.988;2023-07-13T07:23:09;1.77;;;0.00;;
73699;SDS011;62005;50.082;8.988;2023-07-13T07:25:34;1.73;;;0.10;;
73699;SDS011;62005;50.082;8.988;2023-07-13T07:28:02;3.72;;;0.00;;
73699;SDS011;62005;50.082;8.988;2023-07-13T07:30:27;2.65;;;0.80;;
73699;SDS011;62005;50.082;8.988;2023-07-13T07:32:53;0.90;;;0.00;;
73699;SDS011;62005;50.082;8.988;2023-07-13T07:35:18;2.47;;;0.10;;
73699;SDS011;62005;50.082;8.988;2023-07-13T07:37:46;1.17;;;0.00;;
73699;SDS011;62005;50.082;8.988;2023-07-13T07:40:12;3.53;;;0.00;;
73699;SDS011;62005;50.082;8.988;2023-07-13T07:42:37;1.85;;;0.10;;
73699;SDS011;62005;50.082;8.988;2023-07-13T07:45:02;1.90;;;0.00;;
73699;SDS011;62005;50.082;8.988;2023-07-13T07:47:28;1.27;;;0.10;;
73699;SDS011;62005;50.082;8.988;2023-07-13T07:49:53;2.50;;;0.10;;
73699;SDS011;62005;50.082;8.988;2023-07-13T07:52:19;1.92;;;0.00;;
73699;SDS011;62005;50.082;8.988;2023-07-13T07:54:44;1.37;;;0.00;;
73699;SDS011;62005;50.082;8.988;2023-07-13T07:57:09;3.00;;;0.00;;
73699;SDS011;62005;50.082;8.988;2023-07-13T07:59:36;1.63;;;0.10;;
73699;SDS011;62005;50.082;8.988;2023-07-13T08:02:02;2.05;;;0.10;;
73699;SDS011;62005;50.082;8.988;2023-07-13T08:04:28;1.52;;;0.00;;
73699;SDS011;62005;50.082;8.988;2023-07-13T08:06:53;2.30;;;0.00;;
73699;SDS011;62005;50.082;8.988;2023-07-13T08:09:21;1.52;;;0.08;;
73699;SDS011;62005;50.082;8.988;2023-07-13T08:11:46;1.73;;;0.00;;
73699;SDS011;62005;50.082;8.988;2023-07-13T08:14:12;1.40;;;0.00;;
73699;SDS011;62005;50.082;8.988;2023-07-13T08:16:37;2.55;;;0.10;;
73699;SDS011;62005;50.082;8.988;2023-07-13T08:19:03;1.95;;;0.00;;
73699;SDS011;62005;50.082;8.988;2023-07-13T08:23:55;4.05;;;0.00;;
73699;SDS011;62005;50.082;8.988;2023-07-13T08:28:46;1.42;;;0.00;;
73699;SDS011;62005;50.082;8.988;2023-07-13T08:31:12;0.65;;;0.00;;
73699;SDS011;62005;50.082;8.988;2023-07-13T08:33:39;0.80;;;0.00;;
73699;SDS011;62005;50.082;8.988;2023-07-13T08:36:05;1.13;;;0.20;;
73699;SDS011;62005;50.082;8.988;2023-07-13T08:38:31;3.05;;;0.10;;
73699;SDS011;62005;50.082;8.988;2023-07-13T08:40:57;2.88;;;0.10;;
73699;SDS011;62005;50.082;8.988;2023-07-13T08:43:26;1.98;;;0.10;;
73699;SDS011;62005;50.082;8.988;2023-07-13T08:46:05;0.95;;;0.00;;
73699;SDS011;62005;50.082;8.988;2023-07-13T08:48:36;4.15;;;0.10;;
73699;SDS011;62005;50.082;8.988;2023-07-13T08:51:09;3.38;;;0.20;;
73699;SDS011;62005;50.082;8.988;2023-07-13T08:53:46;1.73;;;0.00;;
73699;SDS011;62005;50.082;8.988;2023-07-13T08:56:22;1.70;;;0.00;;
73699;SDS011;62005;50.082;8.988;2023-07-13T08:59:00;1.58;;;0.10;;
73699;SDS011;62005;50.082;8.988;2023-07-13T09:01:45;1.65;;;0.45;;
73699;SDS011;62005;50.082;8.988;2023-07-13T09:09:52;2.58;;;0.03;;
73699;SDS011;62005;50.082;8.988;2023-07-13T09:15:23;1.92;;;0.10;;
73699;SDS011;62005;50.082;8.988;2023-07-13T09:23:30;2.50;;;0.10;;
73699;SDS011;62005;50.082;8.988;2023-07-13T09:26:04;3.83;;;0.10;;
73699;SDS011;62005;50.082;8.988;2023-07-13T09:28:39;2.90;;;0.17;;
73699;SDS011;62005;50.082;8.988;2023-07-13T09:31:13;1.15;;;0.00;;
73699;SDS011;62005;50.082;8.988;2023-07-13T09:33:41;1.85;;;0.00;;
73699;SDS011;62005;50.082;8.988;2023-07-13T09:38:44;0.50;;;0.00;;
73699;SDS011;62005;50.082;8.988;2023-07-13T09:44:16;1.63;;;0.05;;
73699;SDS011;62005;50.082;8.988;2023-07-13T09:46:44;2.30;;;0.10;;
73699;SDS011;62005;50.082;8.988;2023-07-13T09:49:12;0.50;;;0.00;;
73699;SDS011;62005;50.082;8.988;2023-07-13T09:54:05;1.55;;;0.00;;
73699;SDS011;62005;50.082;8.988;2023-07-13T09:56:30;0.97;;;0.00;;
73699;SDS011;62005;50.082;8.988;2023-07-13T10:01:36;2.63;;;0.10;;
73699;SDS011;62005;50.082;8.988;2023-07-13T10:04:10;1.73;;;0.00;;
73699;SDS011;62005;50.082;8.988;2023-07-13T10:06:38;1.63;;;0.00;;
73699;SDS011;62005;50.082;8.988;2023-07-13T10:09:06;0.80;;;0.22;;
73699;SDS011;62005;50.082;8.988;2023-07-13T10:11:34;0.80;;;0.00;;
73699;SDS011;62005;50.082;8.988;2023-07-13T10:14:02;1.88;;;0.10;;
73699;SDS011;62005;50.082;8.988;2023-07-13T10:16:41;0.45;;;0.00;;
73699;SDS011;62005;50.082;8.988;2023-07-13T10:19:19;3.95;;;0.00;;
73699;SDS011;62005;50.082;8.988;2023-07-13T10:21:56;2.75;;;0.00;;
73699;SDS011;62005;50.082;8.988;2023-07-13T10:27:00;0.30;;;0.00;;
73699;SDS011;62005;50.082;8.988;2023-07-13T10:29:29;0.47;;;0.00;;
73699;SDS011;62005;50.082;8.988;2023-07-13T10:32:00;1.63;;;0.10;;
73699;SDS011;62005;50.082;8.988;2023-07-13T10:34:26;0.57;;;0.00;;
73699;SDS011;62005;50.082;8.988;2023-07-13T10:36:52;4.05;;;1.58;;
73699;SDS011;62005;50.082;8.988;2023-07-13T10:39:19;3.15;;;0.73;;
73699;SDS011;62005;50.082;8.988;2023-07-13T10:41:49;0.50;;;0.00;;
73699;SDS011;62005;50.082;8.988;2023-07-13T10:44:21;0.68;;;0.00;;
73699;SDS011;62005;50.082;8.988;2023-07-13T10:46:51;0.68;;;0.00;;
73699;SDS011;62005;50.082;8.988;2023-07-13T10:49:19;1.80;;;0.10;;
73699;SDS011;62005;50.082;8.988;2023-07-13T10:54:19;0.80;;;0.00;;
73699;SDS011;62005;50.082;8.988;2023-07-13T10:56:49;3.33;;;0.00;;
73699;SDS011;62005;50.082;8.988;2023-07-13T10:59:31;1.50;;;0.00;;
73699;SDS011;62005;50.082;8.988;2023-07-13T11:04:42;0.65;;;0.00;;
73699;SDS011;62005;50.082;8.988;2023-07-13T11:07:51;1.27;;;0.00;;
73699;SDS011;62005;50.082;8.988;2023-07-13T11:10:49;1.58;;;0.00;;
73699;SDS011;62005;50.082;8.988;2023-07-13T11:16:35;0.93;;;0.00;;
73699;SDS011;62005;50.082;8.988;2023-07-13T11:21:28;0.60;;;0.00;;
73699;SDS011;62005;50.082;8.988;2023-07-13T11:29:12;1.17;;;0.00;;
73699;SDS011;62005;50.082;8.988;2023-07-13T11:31:54;0.70;;;0.00;;
73699;SDS011;62005;50.082;8.988;2023-07-13T11:34:34;1.02;;;0.00;;
73699;SDS011;62005;50.082;8.988;2023-07-13T11:37:01;2.45;;;0.00;;
73699;SDS011;62005;50.082;8.988;2023-07-13T11:39:30;4.40;;;0.30;;
73699;SDS011;62005;50.082;8.988;2023-07-13T11:42:09;2.25;;;0.03;;
73699;SDS011;62005;50.082;8.988;2023-07-13T11:47:08;1.10;;;0.10;;
73699;SDS011;62005;50.082;8.988;2023-07-13T11:49:43;2.17;;;0.00;;
73699;SDS011;62005;50.082;8.988;2023-07-13T11:52:12;1.55;;;0.00;;
73699;SDS011;62005;50.082;8.988;2023-07-13T11:55:00;3.67;;;0.10;;
73699;SDS011;62005;50.082;8.988;2023-07-13T11:59:52;0.40;;;0.00;;
73699;SDS011;62005;50.082;8.988;2023-07-13T12:02:28;1.73;;;0.10;;
73699;SDS011;62005;50.082;8.988;2023-07-13T12:04:56;1.85;;;0.10;;
73699;SDS011;62005;50.082;8.988;2023-07-13T12:07:23;8.50;;;0.28;;
73699;SDS011;62005;50.082;8.988;2023-07-13T12:09:48;1.17;;;0.10;;
73699;SDS011;62005;50.082;8.988;2023-07-13T12:12:19;0.55;;;0.00;;
73699;SDS011;62005;50.082;8.988;2023-07-13T12:14:50;5.20;;;0.20;;
73699;SDS011;62005;50.082;8.988;2023-07-13T12:17:20;1.27;;;0.03;;
73699;SDS011;62005;50.082;8.988;2023-07-13T12:19:50;18.17;;;0.47;;
73699;SDS011;62005;50.082;8.988;2023-07-13T12:22:18;2.88;;;0.20;;
73699;SDS011;62005;50.082;8.988;2023-07-13T12:24:45;2.17;;;0.20;;
73699;SDS011;62005;50.082;8.988;2023-07-13T12:27:19;1.85;;;0.00;;
73699;SDS011;62005;50.082;8.988;2023-07-13T12:30:04;0.65;;;0.10;;
73699;SDS011;62005;50.082;8.988;2023-07-13T12:35:39;1.00;;;0.00;;
73699;SDS011;62005;50.082;8.988;2023-07-13T12:38:10;0.98;;;0.10;;
73699;SDS011;62005;50.082;8.988;2023-07-13T12:40:37;0.98;;;0.10;;
73699;SDS011;62005;50.082;8.988;2023-07-13T12:43:03;0.65;;;0.00;;
73699;SDS011;62005;50.082;8.988;2023-07-13T12:45:32;2.13;;;0.10;;
73699;SDS011;62005;50.082;8.988;2023-07-13T12:47:58;1.38;;;0.00;;
73699;SDS011;62005;50.082;8.988;2023-07-13T12:50:48;1.13;;;0.00;;
73699;SDS011;62005;50.082;8.988;2023-07-13T12:53:16;1.25;;;0.08;;
73699;SDS011;62005;50.082;8.988;2023-07-13T12:55:48;5.07;;;0.05;;
73699;SDS011;62005;50.082;8.988;2023-07-13T13:00:49;2.17;;;0.10;;
73699;SDS011;62005;50.082;8.988;2023-07-13T13:03:30;3.85;;;0.10;;
73699;SDS011;62005;50.082;8.988;2023-07-13T13:06:02;1.80;;;0.13;;
73699;SDS011;62005;50.082;8.988;2023-07-13T13:08:45;0.65;;;0.00;;
73699;SDS011;62005;50.082;8.988;2023-07-13T13:11:13;6.28;;;0.22;;
73699;SDS011;62005;50.082;8.988;2023-07-13T13:13:42;2.40;;;0.10;;
73699;SDS011;62005;50.082;8.988;2023-07-13T13:16:10;5.45;;;0.10;;
73699;SDS011;62005;50.082;8.988;2023-07-13T13:18:39;2.20;;;0.10;;
73699;SDS011;62005;50.082;8.988;2023-07-13T13:21:04;2.92;;;0.00;;
73699;SDS011;62005;50.082;8.988;2023-07-13T13:23:30;0.80;;;0.00;;
73699;SDS011;62005;50.082;8.988;2023-07-13T13:25:55;2.13;;;0.20;;
73699;SDS011;62005;50.082;8.988;2023-07-13T13:28:20;0.30;;;0.00;;
73699;SDS011;62005;50.082;8.988;2023-07-13T13:30:47;1.27;;;0.40;;
73699;SDS011;62005;50.082;8.988;2023-07-13T13:33:15;1.67;;;0.10;;
73699;SDS011;62005;50.082;8.988;2023-07-13T13:35:42;1.00;;;0.10;;
73699;SDS011;62005;50.082;8.988;2023-07-13T13:38:17;0.70;;;0.00;;
73699;SDS011;62005;50.082;8.988;2023-07-13T13:40:47;0.63;;;0.08;;
73699;SDS011;62005;50.082;8.988;2023-07-13T13:43:21;1.23;;;0.10;;
73699;SDS011;62005;50.082;8.988;2023-07-13T13:45:51;3.08;;;0.10;;
73699;SDS011;62005;50.082;8.988;2023-07-13T13:48:19;1.17;;;0.00;;
73699;SDS011;62005;50.082;8.988;2023-07-13T13:50:55;2.38;;;0.00;;
73699;SDS011;62005;50.082;8.988;2023-07-13T13:53:21;2.45;;;0.10;;
73699;SDS011;62005;50.082;8.988;2023-07-13T13:55:48;1.27;;;0.10;;
73699;SDS011;62005;50.082;8.988;2023-07-13T13:58:13;3.88;;;0.10;;
73699;SDS011;62005;50.082;8.988;2023-07-13T14:00:38;1.00;;;0.00;;
73699;SDS011;62005;50.082;8.988;2023-07-13T14:03:04;2.67;;;0.00;;
73699;SDS011;62005;50.082;8.988;2023-07-13T14:05:32;3.25;;;0.10;;
73699;SDS011;62005;50.082;8.988;2023-07-13T14:07:57;3.53;;;0.10;;
73699;SDS011;62005;50.082;8.988;2023-07-13T14:10:24;1.33;;;0.22;;
73699;SDS011;62005;50.082;8.988;2023-07-13T14:12:52;1.90;;;0.10;;
73699;SDS011;62005;50.082;8.988;2023-07-13T14:15:23;1.08;;;0.10;;
73699;SDS011;62005;50.082;8.988;2023-07-13T14:17:51;2.05;;;0.00;;
73699;SDS011;62005;50.082;8.988;2023-07-13T14:20:17;1.52;;;0.20;;
73699;SDS011;62005;50.082;8.988;2023-07-13T14:22:45;5.22;;;0.10;;
73699;SDS011;62005;50.082;8.988;2023-07-13T14:25:11;1.20;;;0.00;;
73699;SDS011;62005;50.082;8.988;2023-07-13T14:27:38;0.93;;;0.03;;
73699;SDS011;62005;50.082;8.988;2023-07-13T14:30:08;1.60;;;0.00;;
73699;SDS011;62005;50.082;8.988;2023-07-13T14:32:39;2.10;;;0.10;;
73699;SDS011;62005;50.082;8.988;2023-07-13T14:35:04;1.93;;;0.10;;
73699;SDS011;62005;50.082;8.988;2023-07-13T14:37:30;2.17;;;0.08;;
73699;SDS011;62005;50.082;8.988;2023-07-13T14:39:55;1.63;;;0.10;;
73699;SDS011;62005;50.082;8.988;2023-07-13T14:42:20;0.30;;;0.00;;
73699;SDS011;62005;50.082;8.988;2023-07-13T14:44:46;2.17;;;0.10;;
73699;SDS011;62005;50.082;8.988;2023-07-13T14:47:11;1.10;;;0.00;;
73699;SDS011;62005;50.082;8.988;2023-07-13T14:49:40;2.20;;;0.03;;
73699;SDS011;62005;50.082;8.988;2023-07-13T14:52:12;4.15;;;1.55;;
73699;SDS011;62005;50.082;8.988;2023-07-13T14:54:44;5.63;;;0.90;;
73699;SDS011;62005;50.082;8.988;2023-07-13T14:57:13;5.35;;;0.20;;
73699;SDS011;62005;50.082;8.988;2023-07-13T14:59:43;2.22;;;0.10;;
73699;SDS011;62005;50.082;8.988;2023-07-13T15:04:58;1.30;;;0.10;;
73699;SDS011;62005;50.082;8.988;2023-07-13T15:07:24;2.58;;;0.10;;
73699;SDS011;62005;50.082;8.988;2023-07-13T15:09:50;1.20;;;0.10;;
73699;SDS011;62005;50.082;8.988;2023-07-13T15:12:16;1.88;;;0.10;;
73699;SDS011;62005;50.082;8.988;2023-07-13T15:14:42;1.45;;;0.00;;
73699;SDS011;62005;50.082;8.988;2023-07-13T15:17:18;0.60;;;0.00;;
73699;SDS011;62005;50.082;8.988;2023-07-13T15:19:52;1.73;;;0.00;;
73699;SDS011;62005;50.082;8.988;2023-07-13T15:22:18;1.05;;;0.00;;
73699;SDS011;62005;50.082;8.988;2023-07-13T15:24:44;1.65;;;0.10;;
73699;SDS011;62005;50.082;8.988;2023-07-13T15:27:11;1.80;;;0.03;;
73699;SDS011;62005;50.082;8.988;2023-07-13T15:29:37;1.88;;;0.10;;
73699;SDS011;62005;50.082;8.988;2023-07-13T15:32:02;3.13;;;0.20;;
73699;SDS011;62005;50.082;8.988;2023-07-13T15:34:28;1.63;;;0.05;;
73699;SDS011;62005;50.082;8.988;2023-07-13T15:36:53;5.73;;;0.43;;
73699;SDS011;62005;50.082;8.988;2023-07-13T15:39:19;0.60;;;0.05;;
73699;SDS011;62005;50.082;8.988;2023-07-13T15:41:45;0.40;;;0.00;;
73699;SDS011;62005;50.082;8.988;2023-07-13T15:44:22;1.95;;;0.03;;
73699;SDS011;62005;50.082;8.988;2023-07-13T15:46:57;0.77;;;0.00;;
73699;SDS011;62005;50.082;8.988;2023-07-13T15:49:25;1.58;;;0.10;;
73699;SDS011;62005;50.082;8.988;2023-07-13T15:51:50;1.55;;;0.10;;
73699;SDS011;62005;50.082;8.988;2023-07-13T15:54:16;1.95;;;0.00;;
73699;SDS011;62005;50.082;8.988;2023-07-13T15:56:45;1.38;;;0.00;;
73699;SDS011;62005;50.082;8.988;2023-07-13T15:59:17;1.40;;;0.00;;
73699;SDS011;62005;50.082;8.988;2023-07-13T16:01:42;0.43;;;0.00;;